createdAt,value
2019-03-08T00:02:18.216Z,9.00
2019-03-08T00:04:46.675Z,9.00
2019-03-08T00:07:15.152Z,9.00
2019-03-08T00:09:43.553Z,8.90
2019-03-08T00:12:12.139Z,8.90
2019-03-08T00:14:40.531Z,8.80
2019-03-08T00:17:08.925Z,8.80
2019-03-08T00:19:37.386Z,8.80
2019-03-08T00:22:08.002Z,8.80
2019-03-08T00:24:36.413Z,8.80
2019-03-08T00:27:04.991Z,8.80
2019-03-08T00:29:33.395Z,8.80
2019-03-08T00:32:01.863Z,8.70
2019-03-08T00:34:30.243Z,8.80
2019-03-08T00:36:58.637Z,8.80
2019-03-08T00:39:27.025Z,8.70
2019-03-08T00:41:55.625Z,8.60
2019-03-08T00:44:24.011Z,8.70
2019-03-08T00:46:52.426Z,8.70
2019-03-08T00:49:20.811Z,8.80
2019-03-08T00:51:49.213Z,8.80
2019-03-08T00:54:17.617Z,8.90
2019-03-08T00:56:46.298Z,8.90
2019-03-08T00:59:14.673Z,8.90
2019-03-08T01:01:43.105Z,9.00
2019-03-08T01:04:11.563Z,9.00
2019-03-08T01:06:39.972Z,9.00
2019-03-08T01:09:08.749Z,9.00
2019-03-08T01:11:37.476Z,9.00
2019-03-08T01:14:05.854Z,9.00
2019-03-08T01:16:34.272Z,8.90
2019-03-08T01:19:02.928Z,8.90
2019-03-08T01:21:31.343Z,8.90
2019-03-08T01:23:59.735Z,8.90
2019-03-08T01:26:28.419Z,8.90
2019-03-08T01:28:56.801Z,8.90
2019-03-08T01:31:25.211Z,9.00
2019-03-08T01:33:53.593Z,9.10
2019-03-08T01:36:22.413Z,9.10
2019-03-08T01:38:50.874Z,9.10
2019-03-08T01:41:19.455Z,9.10
2019-03-08T01:43:47.894Z,9.20
2019-03-08T01:46:16.335Z,9.30
2019-03-08T01:48:44.732Z,9.30
2019-03-08T01:51:13.133Z,9.30
2019-03-08T01:53:41.572Z,9.30
2019-03-08T01:56:10.217Z,9.40
2019-03-08T01:58:38.609Z,9.40
2019-03-08T02:01:07.020Z,9.40
2019-03-08T02:03:35.409Z,9.30
2019-03-08T02:06:03.890Z,9.30
2019-03-08T02:08:32.356Z,9.20
2019-03-08T02:11:00.917Z,9.20
2019-03-08T02:13:29.323Z,9.10
2019-03-08T02:15:57.728Z,9.10
2019-03-08T02:18:26.131Z,9.10
2019-03-08T02:20:54.519Z,9.00
2019-03-08T02:23:22.934Z,9.00
2019-03-08T02:25:51.595Z,9.10
2019-03-08T02:28:20.003Z,9.00
2019-03-08T02:30:49.281Z,9.00
2019-03-08T02:33:17.704Z,9.00
2019-03-08T02:35:46.157Z,8.90
2019-03-08T02:38:14.562Z,9.00
2019-03-08T02:40:43.223Z,9.00
2019-03-08T02:43:13.657Z,9.00
2019-03-08T02:45:42.054Z,9.00
2019-03-08T02:48:10.549Z,8.90
2019-03-08T02:50:39.074Z,8.90
2019-03-08T02:53:07.474Z,8.70
2019-03-08T02:55:36.205Z,8.60
2019-03-08T02:58:04.862Z,8.60
2019-03-08T03:00:36.348Z,8.50
2019-03-08T03:03:04.752Z,8.50
2019-03-08T03:05:34.028Z,8.40
2019-03-08T03:08:02.711Z,8.40
2019-03-08T03:10:31.094Z,8.40
2019-03-08T03:12:59.498Z,8.40
2019-03-08T03:15:27.895Z,8.40
2019-03-08T03:17:56.317Z,8.50
2019-03-08T03:20:24.697Z,8.50
2019-03-08T03:22:53.393Z,8.50
2019-03-08T03:25:21.841Z,8.50
2019-03-08T03:27:50.250Z,8.50
2019-03-08T03:30:20.759Z,8.50
2019-03-08T03:32:51.925Z,8.50
2019-03-08T03:35:20.408Z,8.60
2019-03-08T03:37:49.094Z,8.60
2019-03-08T03:40:18.621Z,8.60
2019-03-08T03:42:47.014Z,8.60
2019-03-08T03:45:19.633Z,8.60
2019-03-08T03:47:48.204Z,8.60
2019-03-08T03:50:18.406Z,8.60
2019-03-08T03:52:47.195Z,8.60
2019-03-08T03:55:18.791Z,8.60
2019-03-08T03:57:47.179Z,8.60
2019-03-08T04:00:21.298Z,8.60
2019-03-08T04:02:49.698Z,8.60
2019-03-08T04:05:18.184Z,8.60
2019-03-08T04:07:46.598Z,8.60
2019-03-08T04:10:15.997Z,8.60
2019-03-08T04:12:44.388Z,8.60
2019-03-08T04:15:15.873Z,8.60
2019-03-08T04:17:44.539Z,8.60
2019-03-08T04:20:15.351Z,8.70
2019-03-08T04:22:43.755Z,8.60
2019-03-08T04:25:13.564Z,8.70
2019-03-08T04:27:41.971Z,8.70
2019-03-08T04:30:13.335Z,8.70
2019-03-08T04:32:41.824Z,8.70
2019-03-08T04:35:10.273Z,8.70
2019-03-08T04:37:38.686Z,8.70
2019-03-08T04:40:09.725Z,8.70
2019-03-08T04:42:38.147Z,8.70
2019-03-08T04:45:14.776Z,8.60
2019-03-08T04:47:43.182Z,8.40
2019-03-08T04:50:12.806Z,8.30
2019-03-08T04:52:41.224Z,8.20
2019-03-08T04:55:17.848Z,8.10
2019-03-08T04:57:46.985Z,8.00
2019-03-08T05:00:16.701Z,7.80
2019-03-08T05:02:45.116Z,7.70
2019-03-08T05:05:13.629Z,7.60
2019-03-08T05:07:42.116Z,7.40
2019-03-08T05:10:13.579Z,7.30
2019-03-08T05:12:42.262Z,7.20
2019-03-08T05:15:10.800Z,7.10
2019-03-08T05:17:39.224Z,7.00
2019-03-08T05:20:09.443Z,6.90
2019-03-08T05:22:37.859Z,6.70
2019-03-08T05:25:08.487Z,6.70
2019-03-08T05:27:36.890Z,6.70
2019-03-08T05:30:10.704Z,6.60
2019-03-08T05:32:39.103Z,6.60
2019-03-08T05:35:08.740Z,6.70
2019-03-08T05:37:37.152Z,6.70
2019-03-08T05:40:08.844Z,6.70
2019-03-08T05:42:37.260Z,6.70
2019-03-08T05:45:13.790Z,6.70
2019-03-08T05:47:42.268Z,6.70
2019-03-08T05:50:11.533Z,6.70
2019-03-08T05:52:40.289Z,6.70
2019-03-08T05:55:10.019Z,6.60
2019-03-08T05:57:38.443Z,6.60
2019-03-08T06:00:35.246Z,6.60
2019-03-08T06:03:02.966Z,6.60
2019-03-08T06:05:31.363Z,6.60
2019-03-08T06:07:59.849Z,6.60
2019-03-08T06:10:30.463Z,6.60
2019-03-08T06:12:59.730Z,6.70
2019-03-08T06:15:28.185Z,6.70
2019-03-08T06:17:56.944Z,6.70
2019-03-08T06:20:25.352Z,6.80
2019-03-08T06:23:13.086Z,6.80
2019-03-08T06:25:41.564Z,6.80
2019-03-08T06:28:10.028Z,6.80
2019-03-08T06:30:38.437Z,6.80
2019-03-08T06:33:06.853Z,6.90
2019-03-08T06:35:35.269Z,6.90
2019-03-08T06:38:03.739Z,6.80
2019-03-08T06:40:32.135Z,6.80
2019-03-08T06:43:00.551Z,6.90
2019-03-08T06:45:29.222Z,7.00
2019-03-08T06:47:57.635Z,7.10
2019-03-08T06:50:26.044Z,7.30
2019-03-08T06:52:54.455Z,7.50
2019-03-08T06:55:22.826Z,7.70
2019-03-08T06:58:02.595Z,7.90
2019-03-08T07:00:41.378Z,8.00
2019-03-08T07:03:09.846Z,8.20
2019-03-08T07:05:38.221Z,8.30
2019-03-08T07:08:06.926Z,8.30
2019-03-08T07:10:35.310Z,8.30
2019-03-08T07:13:04.020Z,8.30
2019-03-08T07:15:32.495Z,8.30
2019-03-08T07:18:00.892Z,8.30
2019-03-08T07:20:47.125Z,8.20
2019-03-08T07:23:17.337Z,8.20
2019-03-08T07:25:51.488Z,8.30
2019-03-08T07:28:27.880Z,8.40
2019-03-08T07:31:00.645Z,8.40
2019-03-08T07:33:30.683Z,8.50
2019-03-08T07:36:00.723Z,8.50
2019-03-08T07:38:33.767Z,8.70
2019-03-08T07:41:09.272Z,8.80
2019-03-08T07:43:47.830Z,9.00
2019-03-08T07:46:23.872Z,9.10
2019-03-08T07:48:56.933Z,9.10
2019-03-08T07:51:35.984Z,9.20
2019-03-08T07:54:08.759Z,9.30
2019-03-08T07:56:44.530Z,9.50
2019-03-08T07:59:20.050Z,9.60
2019-03-08T08:02:02.131Z,9.60
2019-03-08T08:04:32.180Z,9.80
2019-03-08T08:07:07.995Z,9.90
2019-03-08T08:09:44.183Z,9.90
2019-03-08T08:12:17.286Z,9.70
2019-03-08T08:14:59.352Z,9.70
2019-03-08T08:17:44.658Z,9.70
2019-03-08T08:20:17.273Z,9.60
2019-03-08T08:22:49.981Z,9.50
2019-03-08T08:25:23.014Z,9.60
2019-03-08T08:27:53.047Z,9.60
2019-03-08T08:30:35.366Z,9.60
2019-03-08T08:33:17.588Z,9.70
2019-03-08T08:35:56.880Z,9.80
2019-03-08T08:38:43.373Z,9.90
2019-03-08T08:41:16.431Z,9.90
2019-03-08T08:43:49.419Z,10.00
2019-03-08T08:46:22.405Z,10.10
2019-03-08T08:49:08.793Z,10.00
2019-03-08T08:51:38.831Z,10.00
2019-03-08T08:54:14.865Z,10.10
2019-03-08T08:56:47.855Z,10.20
2019-03-08T08:59:34.277Z,10.40
2019-03-08T09:02:21.763Z,10.40
2019-03-08T09:04:54.804Z,10.50
2019-03-08T09:07:27.983Z,10.70
2019-03-08T09:10:10.017Z,10.80
2019-03-08T09:12:40.061Z,11.10
2019-03-08T09:15:15.787Z,11.00
2019-03-08T09:17:45.808Z,10.90
2019-03-08T09:20:30.949Z,10.80
2019-03-08T09:23:09.765Z,10.70
2019-03-08T09:25:42.509Z,10.50
2019-03-08T09:28:12.634Z,10.50
2019-03-08T09:30:48.398Z,10.60
2019-03-08T09:33:27.467Z,10.70
2019-03-08T09:35:57.524Z,10.90
2019-03-08T09:38:36.570Z,11.20
2019-03-08T09:41:12.131Z,11.10
2019-03-08T09:43:57.176Z,11.10
2019-03-08T09:46:33.424Z,11.00
2019-03-08T09:49:19.710Z,11.00
2019-03-08T09:51:55.483Z,10.80
2019-03-08T09:54:37.742Z,10.80
2019-03-08T09:57:24.100Z,10.80
2019-03-08T10:00:10.514Z,10.90
2019-03-08T10:02:55.777Z,11.00
2019-03-08T10:05:41.823Z,11.30
2019-03-08T10:08:11.869Z,11.70
2019-03-08T10:10:44.939Z,11.70
2019-03-08T10:13:15.069Z,11.70
2019-03-08T10:16:02.978Z,11.60
2019-03-08T10:18:33.021Z,11.70
2019-03-08T10:21:09.197Z,11.50
2019-03-08T10:23:51.310Z,11.20
2019-03-08T10:26:24.371Z,11.00
2019-03-08T10:28:54.408Z,11.20
2019-03-08T10:34:26.771Z,11.20
2019-03-08T10:37:12.837Z,11.20
2019-03-08T10:39:51.392Z,11.30
2019-03-08T10:42:24.365Z,11.60
2019-03-08T10:44:56.891Z,11.80
2019-03-08T10:47:26.935Z,12.20
2019-03-08T10:49:59.460Z,12.60
2019-03-08T10:52:32.203Z,12.80
2019-03-08T10:55:07.992Z,12.90
2019-03-08T10:57:38.021Z,13.10
2019-03-08T11:00:14.053Z,13.40
2019-03-08T11:02:50.094Z,13.40
2019-03-08T11:05:36.091Z,13.40
2019-03-08T11:08:06.199Z,13.20
2019-03-08T11:10:36.253Z,13.20
2019-03-08T11:13:15.437Z,13.00
2019-03-08T11:15:51.193Z,12.80
2019-03-08T11:18:27.127Z,12.90
2019-03-08T11:21:14.977Z,12.80
2019-03-08T11:23:54.250Z,12.70
2019-03-08T11:26:26.990Z,13.00
2019-03-08T11:29:32.852Z,13.30
2019-03-08T11:32:23.298Z,13.50
2019-03-08T11:34:55.998Z,13.60
2019-03-08T11:37:27.824Z,13.30
2019-03-08T11:40:07.040Z,13.10
2019-03-08T11:42:40.261Z,13.20
2019-03-08T11:45:10.564Z,13.30
2019-03-08T11:47:40.610Z,13.40
2019-03-08T11:50:11.909Z,13.40
2019-03-08T11:53:00.316Z,13.40
2019-03-08T11:55:42.291Z,13.50
2019-03-08T11:58:24.761Z,13.80
2019-03-08T12:01:12.895Z,14.30
2019-03-08T12:03:43.200Z,14.40
2019-03-08T12:06:16.081Z,14.60
2019-03-08T12:08:52.362Z,14.70
2019-03-08T12:11:37.765Z,14.60
2019-03-08T12:14:19.955Z,14.10
2019-03-08T12:17:06.242Z,13.70
2019-03-08T12:19:52.508Z,13.20
2019-03-08T12:22:31.377Z,13.10
2019-03-08T12:25:17.747Z,12.90
2019-03-08T12:27:53.375Z,12.80
2019-03-08T12:30:35.219Z,12.90
2019-03-08T12:33:10.897Z,12.90
2019-03-08T12:35:52.794Z,13.00
2019-03-08T12:38:22.886Z,13.50
2019-03-08T12:41:09.458Z,14.00
2019-03-08T12:43:46.423Z,14.30
2019-03-08T12:46:16.546Z,14.40
2019-03-08T12:48:55.364Z,14.30
2019-03-08T12:51:25.424Z,14.10
2019-03-08T12:54:11.516Z,13.70
2019-03-08T12:56:57.919Z,13.40
2019-03-08T12:59:44.611Z,13.20
2019-03-08T13:02:17.630Z,13.10
2019-03-08T13:05:03.738Z,13.20
2019-03-08T13:07:50.190Z,13.30
2019-03-08T13:10:18.587Z,13.30
2019-03-08T13:12:47.202Z,13.70
2019-03-08T13:15:16.151Z,14.10
2019-03-08T13:17:44.553Z,14.10
2019-03-08T13:20:17.775Z,14.00
2019-03-08T13:22:46.191Z,13.80
2019-03-08T13:25:14.855Z,13.60
2019-03-08T13:27:43.352Z,13.50
2019-03-08T13:30:22.586Z,13.10
2019-03-08T13:32:50.989Z,12.90
2019-03-08T13:35:19.377Z,12.80
2019-03-08T13:37:47.799Z,12.80
2019-03-08T13:40:16.732Z,13.20
2019-03-08T13:42:45.151Z,13.40
2019-03-08T13:45:21.414Z,13.70
2019-03-08T13:47:49.826Z,13.90
2019-03-08T13:50:18.304Z,14.20
2019-03-08T13:52:47.065Z,14.30
2019-03-08T13:55:16.717Z,14.20
2019-03-08T13:57:45.199Z,14.10
2019-03-08T14:00:18.857Z,14.10
2019-03-08T14:02:47.272Z,13.60
2019-03-08T14:05:15.913Z,13.80
2019-03-08T14:07:44.399Z,14.00
2019-03-08T14:10:18.025Z,13.80
2019-03-08T14:12:46.442Z,13.80
2019-03-08T14:15:16.093Z,14.00
2019-03-08T14:17:44.517Z,14.30
2019-03-08T14:20:24.736Z,14.40
2019-03-08T14:22:53.153Z,14.40
2019-03-08T14:25:21.870Z,14.50
2019-03-08T14:27:50.275Z,14.30
2019-03-08T14:30:24.173Z,14.20
2019-03-08T14:32:52.603Z,14.10
2019-03-08T14:35:21.256Z,13.80
2019-03-08T14:37:52.438Z,13.80
2019-03-08T14:40:27.041Z,13.60
2019-03-08T14:43:16.914Z,13.20
2019-03-08T14:46:04.845Z,13.00
2019-03-08T14:48:33.259Z,12.60
2019-03-08T14:51:01.743Z,12.10
2019-03-08T14:53:32.762Z,12.00
2019-03-08T14:56:00.595Z,12.00
2019-03-08T14:58:32.546Z,12.10
2019-03-08T15:01:02.159Z,12.10
2019-03-08T15:03:29.248Z,12.20
2019-03-08T15:05:59.259Z,12.20
2019-03-08T15:08:27.742Z,12.20
2019-03-08T15:10:56.155Z,12.30
2019-03-08T15:13:25.818Z,12.20
2019-03-08T15:15:58.101Z,12.10
2019-03-08T15:18:25.917Z,12.10
2019-03-08T15:20:54.878Z,12.00
2019-03-08T15:23:27.505Z,11.90
2019-03-08T15:25:55.815Z,11.90
2019-03-08T15:28:24.214Z,12.00
2019-03-08T15:30:52.633Z,12.10
2019-03-08T15:33:21.038Z,12.20
2019-03-08T15:35:49.434Z,12.30
2019-03-08T15:38:17.840Z,12.30
2019-03-08T15:40:48.760Z,12.50
2019-03-08T15:43:17.389Z,12.80
2019-03-08T15:45:46.191Z,13.00
2019-03-08T15:48:15.874Z,13.00
2019-03-08T15:50:46.862Z,13.10
2019-03-08T15:53:14.529Z,13.10
2019-03-08T15:55:52.242Z,13.00
2019-03-08T15:58:13.364Z,13.00
2019-03-08T16:00:42.129Z,12.90
2019-03-08T16:03:10.535Z,12.90
2019-03-08T16:05:38.988Z,12.80
2019-03-08T16:08:07.401Z,12.70
2019-03-08T16:10:35.845Z,12.80
2019-03-08T16:13:04.221Z,12.70
2019-03-08T16:15:32.699Z,12.70
2019-03-08T16:18:01.103Z,12.60
2019-03-08T16:20:29.491Z,12.50
2019-03-08T16:22:58.083Z,12.40
2019-03-08T16:25:26.490Z,12.30
2019-03-08T16:27:54.881Z,12.30
2019-03-08T16:30:33.489Z,12.30
2019-03-08T16:33:24.440Z,12.20
2019-03-08T16:35:56.011Z,12.10
2019-03-08T16:38:25.849Z,12.00
2019-03-08T16:41:12.011Z,11.90
2019-03-08T16:43:46.623Z,11.80
2019-03-08T16:46:16.501Z,11.70
2019-03-08T16:48:58.464Z,11.70
2019-03-08T16:51:37.287Z,11.60
2019-03-08T16:54:23.456Z,11.60
2019-03-08T16:56:56.737Z,11.60
2019-03-08T16:59:26.758Z,11.50
2019-03-08T17:01:56.818Z,11.40
2019-03-08T17:04:41.895Z,11.40
2019-03-08T17:07:14.878Z,11.30
2019-03-08T17:09:50.390Z,11.10
2019-03-08T17:12:22.921Z,11.10
2019-03-08T17:14:52.959Z,11.10
2019-03-08T17:17:23.011Z,11.00
2019-03-08T17:19:59.087Z,11.00
2019-03-08T17:22:29.143Z,10.90
2019-03-08T17:25:16.746Z,10.80
2019-03-08T17:27:46.939Z,10.80
2019-03-08T17:30:18.822Z,10.70
2019-03-08T17:32:57.627Z,10.70
2019-03-08T17:35:30.603Z,10.60
2019-03-08T17:38:12.576Z,10.50
2019-03-08T17:40:54.198Z,10.50
2019-03-08T17:43:29.994Z,10.40
2019-03-08T17:46:11.719Z,10.40
2019-03-08T17:48:41.757Z,10.30
2019-03-08T17:51:20.760Z,10.20
2019-03-08T17:54:02.857Z,10.10
2019-03-08T17:56:49.355Z,10.10
2019-03-08T17:59:19.395Z,10.00
2019-03-08T18:02:05.459Z,9.80
2019-03-08T18:04:47.687Z,9.70
2019-03-08T18:07:20.469Z,9.40
2019-03-08T18:10:07.052Z,9.20
2019-03-08T18:12:49.346Z,9.00
2019-03-08T18:15:19.401Z,8.80
2019-03-08T18:17:52.355Z,8.70
2019-03-08T18:20:22.401Z,8.40
2019-03-08T18:22:58.305Z,8.20
2019-03-08T18:25:31.471Z,7.90
2019-03-08T18:28:07.676Z,7.70
2019-03-08T18:30:37.715Z,7.50
2019-03-08T18:33:10.519Z,7.40
2019-03-08T18:35:40.662Z,7.30
2019-03-08T18:38:27.235Z,7.20
2019-03-08T18:41:13.736Z,7.20
2019-03-08T18:43:56.025Z,7.30
2019-03-08T18:46:26.116Z,7.30
2019-03-08T18:48:56.320Z,7.20
2019-03-08T18:51:28.956Z,7.20
2019-03-08T18:54:02.014Z,7.10
2019-03-08T18:56:48.604Z,7.20
2019-03-08T18:59:21.458Z,7.20
2019-03-08T19:02:06.492Z,7.10
2019-03-08T19:04:45.433Z,7.10
2019-03-08T19:07:23.972Z,7.00
2019-03-08T19:09:54.007Z,7.10
2019-03-08T19:12:30.030Z,7.10
2019-03-08T19:15:00.442Z,7.10
2019-03-08T19:17:33.180Z,7.10
2019-03-08T19:20:12.455Z,7.10
2019-03-08T19:22:45.209Z,7.10
2019-03-08T19:25:15.312Z,7.20
2019-03-08T19:27:45.395Z,7.20
2019-03-08T19:30:29.123Z,7.30
2019-03-08T19:33:08.275Z,7.30
2019-03-08T19:35:54.453Z,7.30
2019-03-08T19:38:33.434Z,7.30
2019-03-08T19:41:19.095Z,7.30
2019-03-08T19:44:01.290Z,7.30
2019-03-08T19:46:46.369Z,7.30
2019-03-08T19:49:31.912Z,7.30
2019-03-08T19:52:04.736Z,7.30
2019-03-08T19:54:49.933Z,7.30
2019-03-08T19:57:36.168Z,7.30
2019-03-08T20:00:27.447Z,7.30
2019-03-08T20:03:00.007Z,7.30
2019-03-08T20:05:33.029Z,7.30
2019-03-08T20:08:22.425Z,7.10
2019-03-08T20:10:52.484Z,7.10
2019-03-08T20:13:28.230Z,7.20
2019-03-08T20:15:58.275Z,7.20
2019-03-08T20:18:37.369Z,7.10
2019-03-08T20:21:09.980Z,7.10
2019-03-08T20:23:40.026Z,7.20
2019-03-08T20:26:12.998Z,7.20
2019-03-08T20:28:45.739Z,7.20
2019-03-08T20:31:15.799Z,7.30
2019-03-08T20:33:55.089Z,7.30
2019-03-08T20:36:37.319Z,7.30
2019-03-08T20:39:10.784Z,7.40
2019-03-08T20:41:46.703Z,7.40
2019-03-08T20:44:36.095Z,7.40
2019-03-08T20:47:09.280Z,7.30
2019-03-08T20:49:37.681Z,7.40
2019-03-08T20:52:06.079Z,7.40
2019-03-08T20:54:34.770Z,7.40
2019-03-08T20:57:03.163Z,7.40
2019-03-08T20:59:31.575Z,7.40
2019-03-08T21:01:59.975Z,7.40
2019-03-08T21:04:28.386Z,7.50
2019-03-08T21:06:56.783Z,7.50
2019-03-08T21:09:25.187Z,7.50
2019-03-08T21:11:53.583Z,7.50
2019-03-08T21:14:21.987Z,7.50
2019-03-08T21:16:50.380Z,7.40
2019-03-08T21:19:18.799Z,7.40
2019-03-08T21:21:47.187Z,7.30
2019-03-08T21:24:15.591Z,7.30
2019-03-08T21:26:43.986Z,7.40
2019-03-08T21:29:12.378Z,7.40
2019-03-08T21:31:40.786Z,7.40
2019-03-08T21:34:09.196Z,7.30
2019-03-08T21:36:37.765Z,7.20
2019-03-08T21:39:06.614Z,7.20
2019-03-08T21:41:35.038Z,7.20
2019-03-08T21:44:03.436Z,7.20
2019-03-08T21:46:31.844Z,7.20
2019-03-08T21:49:00.225Z,7.30
2019-03-08T21:51:28.646Z,7.30
2019-03-08T21:53:57.027Z,7.30
2019-03-08T21:56:25.442Z,7.30
2019-03-08T21:58:53.839Z,7.20
2019-03-08T22:01:22.276Z,7.10
2019-03-08T22:03:52.584Z,7.10
2019-03-08T22:06:20.985Z,7.00
2019-03-08T22:11:56.610Z,6.90
2019-03-08T22:14:25.000Z,6.90
2019-03-08T22:16:53.419Z,6.90
2019-03-08T22:19:21.807Z,7.00
2019-03-08T22:21:50.219Z,7.00
2019-03-08T22:24:18.601Z,7.10
2019-03-08T22:26:47.011Z,7.10
2019-03-08T22:29:15.393Z,7.10
2019-03-08T22:31:45.725Z,7.10
2019-03-08T22:34:14.128Z,7.10
2019-03-08T22:36:42.917Z,7.10
2019-03-08T22:39:11.299Z,7.10
2019-03-08T22:41:39.703Z,7.10
2019-03-08T22:44:08.129Z,7.10
2019-03-08T22:46:45.014Z,7.10
2019-03-08T22:49:06.675Z,7.10
2019-03-08T22:51:35.065Z,7.10
2019-03-08T22:54:03.531Z,7.10
2019-03-08T22:56:31.923Z,7.00
2019-03-08T22:59:00.333Z,7.00
2019-03-08T23:01:39.971Z,7.10
2019-03-08T23:04:08.449Z,7.10
2019-03-08T23:06:36.855Z,6.90
2019-03-08T23:09:07.625Z,6.90
2019-03-08T23:11:36.035Z,6.90
2019-03-08T23:14:04.500Z,6.90
2019-03-08T23:16:32.931Z,6.70
2019-03-08T23:19:01.322Z,6.60
2019-03-08T23:21:29.729Z,6.70
2019-03-08T23:23:58.131Z,6.80
2019-03-08T23:26:26.893Z,6.90
2019-03-08T23:29:06.284Z,6.90
2019-03-08T23:31:39.315Z,6.90
2019-03-08T23:34:07.723Z,7.10
2019-03-08T23:36:36.117Z,7.00
2019-03-08T23:39:07.126Z,7.10
2019-03-08T23:41:35.704Z,7.00
2019-03-08T23:44:04.240Z,7.10
2019-03-08T23:46:32.643Z,7.10
2019-03-08T23:49:01.044Z,7.20
2019-03-08T23:51:29.488Z,7.20
2019-03-08T23:53:57.937Z,7.20
2019-03-08T23:56:26.357Z,7.20
2019-03-08T23:58:54.747Z,7.10
